Holly Pond, Alabama
Current Conditions -  °F | °C
As of 7:15 PM on Monday 22 Dec 2014 (Local Time) from KCMD Reporting Station
Light Rain Light Rain  
Wind Chill: 45°   Ceiling: 400
Heat Index: 48°   Visibility: 5mi
Dew Point: 48°   Wind: 8mph
Humidity: 97%   Direction: 140°SE
Pressure: 29.79"   Gusts: NA
Location:  34.17°N, 86.62°W
Report Text: KCMD 230115Z AUTO 14007KT 5SM -RA BKN004 OVC010 09/09 A2979 RMK AO2 P0004 T00910087
Loading
Personal Weather Stations






























Interactive Weather Map New forecast layout! Learn more

10-Day Weather Forecast

Advertisements
Track Severe Weather on mobile